Time;durP1;ratioP1;P1;durP2;ratioP2;P2;SDS_P1;SDS_P2;PMS_P1;PMS_P2;Temp;Humidity;BMP_temperature;BMP_pressure;BME280_temperature;BME280_humidity;BME280_pressure;Samples;Min_cycle;Max_cycle;Signal;HPM_P1;HPM_P2
2023/01/09 00:01:01;;;;;;;9.20;4.30;;;;;;;0.70;96.73;94949.41;5133022;27;20623;-88
2023/01/09 00:03:28;;;;;;;7.25;4.28;;;;;;;0.69;96.53;94953.13;5131452;27;20227;-88
2023/01/09 00:05:55;;;;;;;10.95;5.55;;;;;;;0.69;95.66;94947.00;5130056;27;20209;-89
2023/01/09 00:08:22;;;;;;;10.25;3.88;;;;;;;0.60;95.17;94949.34;5124583;27;20757;-89
2023/01/09 00:10:49;;;;;;;5.47;3.30;;;;;;;0.69;96.19;94950.47;5134257;27;20212;-89
2023/01/09 00:13:17;;;;;;;9.48;4.88;;;;;;;0.69;96.26;94947.81;5133906;27;20201;-89
2023/01/09 00:15:44;;;;;;;12.57;6.53;;;;;;;0.75;94.79;94945.19;5127879;27;20285;-90
2023/01/09 00:18:11;;;;;;;10.30;5.60;;;;;;;0.62;94.95;94941.91;5131403;27;20201;-88
2023/01/09 00:20:38;;;;;;;9.10;4.68;;;;;;;0.60;95.31;94937.88;5131913;27;20384;-89
2023/01/09 00:23:05;;;;;;;10.65;5.10;;;;;;;0.48;95.76;94930.09;5119671;27;20201;-89
2023/01/09 00:25:32;;;;;;;10.45;4.40;;;;;;;0.60;96.63;94938.69;5124293;27;20600;-89
2023/01/09 00:27:59;;;;;;;34.38;16.75;;;;;;;0.71;96.93;94937.69;5119838;27;20208;-89
2023/01/09 00:30:27;;;;;;;10.73;5.07;;;;;;;0.78;96.63;94948.13;5132614;27;20201;-89
2023/01/09 00:32:55;;;;;;;13.77;4.55;;;;;;;0.61;95.49;94945.63;5124533;27;20205;-89
2023/01/09 00:35:24;;;;;;;11.60;6.78;;;;;;;0.55;96.03;94946.66;5133258;27;20616;-88
2023/01/09 00:37:51;;;;;;;8.90;4.25;;;;;;;0.61;96.43;94936.84;5128494;27;20752;-89
2023/01/09 00:40:19;;;;;;;9.05;3.90;;;;;;;0.63;96.28;94948.84;5121328;27;20225;-89
2023/01/09 00:42:51;;;;;;;15.52;6.38;;;;;;;0.45;96.85;94941.25;5126171;27;20205;-89
2023/01/09 00:45:27;;;;;;;8.85;3.63;;;;;;;0.42;96.92;94933.78;5124347;27;20243;-88
2023/01/09 00:48:00;;;;;;;8.00;3.90;;;;;;;0.26;95.12;94942.75;5126113;27;20205;-88
2023/01/09 00:50:31;;;;;;;36.58;17.45;;;;;;;0.20;95.58;94935.75;5121115;27;20201;-88
2023/01/09 00:53:03;;;;;;;13.65;5.55;;;;;;;0.27;96.12;94939.78;5127200;27;20235;-88
2023/01/09 00:55:30;;;;;;;6.80;3.28;;;;;;;0.27;96.24;94939.78;5125443;27;20219;-88
2023/01/09 00:57:57;;;;;;;10.23;4.90;;;;;;;0.28;95.34;94945.94;5127681;27;20258;-88
2023/01/09 01:00:24;;;;;;;8.73;4.45;;;;;;;0.21;95.44;94935.50;5126550;27;20224;-89
2023/01/09 01:02:51;;;;;;;10.43;4.65;;;;;;;0.22;95.53;94937.13;5129520;27;20247;-88
2023/01/09 01:07:59;;;;;;;13.23;4.45;;;;;;;0.21;96.76;94940.03;5089100;27;20198;-89
2023/01/09 01:10:26;;;;;;;9.82;4.75;;;;;;;0.25;97.18;94941.13;5131150;27;20189;-89
2023/01/09 01:12:53;;;;;;;9.48;3.70;;;;;;;0.20;96.68;94938.41;5127815;27;20197;-90
2023/01/09 01:15:21;;;;;;;8.20;4.93;;;;;;;0.31;97.04;94924.09;5125951;27;20733;-89
2023/01/09 01:17:48;;;;;;;9.98;6.30;;;;;;;0.35;97.12;94925.22;5124553;27;20637;-89
2023/01/09 01:20:18;;;;;;;12.90;5.65;;;;;;;0.38;97.50;94929.22;5124834;27;20290;-89
2023/01/09 01:22:46;;;;;;;9.98;4.53;;;;;;;0.32;97.52;94931.06;5121726;27;20600;-90
2023/01/09 01:25:15;;;;;;;25.90;4.97;;;;;;;0.38;98.25;94919.38;5123263;27;20257;-88
2023/01/09 01:27:42;;;;;;;13.05;5.03;;;;;;;0.41;98.05;94918.84;5129114;27;20189;-90
2023/01/09 01:30:12;;;;;;;11.55;5.20;;;;;;;0.48;97.91;94916.78;5119189;27;20535;-90
2023/01/09 01:32:39;;;;;;;7.85;4.90;;;;;;;0.25;97.22;94919.81;5121988;27;20292;-90
2023/01/09 01:35:07;;;;;;;13.70;4.13;;;;;;;0.37;97.38;94912.44;5125803;27;20201;-90
2023/01/09 01:37:35;;;;;;;9.23;5.15;;;;;;;0.33;97.15;94911.34;5122655;27;20204;-88
2023/01/09 01:40:06;;;;;;;11.27;4.90;;;;;;;0.30;97.35;94901.19;5117813;27;20208;-88
2023/01/09 01:42:34;;;;;;;14.10;5.72;;;;;;;0.37;97.66;94896.47;5112739;27;20554;-89
2023/01/09 01:45:09;;;;;;;12.88;6.22;;;;;;;0.27;96.48;94899.06;5117655;27;20221;-87
2023/01/09 01:47:42;;;;;;;9.05;5.80;;;;;;;0.20;96.22;94901.13;5119143;27;20193;-88
2023/01/09 01:50:16;;;;;;;13.02;6.47;;;;;;;0.10;96.84;94901.88;5124734;27;20204;-87
2023/01/09 01:52:47;;;;;;;6.25;3.88;;;;;;;-0.01;95.68;94898.34;5122877;27;20190;-87
2023/01/09 01:55:17;;;;;;;32.13;16.75;;;;;;;-0.01;96.24;94886.88;5122670;27;20197;-86
2023/01/09 01:57:49;;;;;;;32.28;17.30;;;;;;;0.08;96.67;94881.88;5119164;27;20207;-88
2023/01/09 02:00:18;;;;;;;33.55;17.35;;;;;;;0.05;96.62;94882.38;5120666;27;20819;-87
2023/01/09 02:02:45;;;;;;;9.45;4.47;;;;;;;0.08;96.44;94877.34;5124266;27;20282;-88
2023/01/09 02:05:12;;;;;;;34.58;17.45;;;;;;;-0.03;96.69;94878.34;5122377;27;20205;-87
2023/01/09 02:07:39;;;;;;;32.92;16.42;;;;;;;-0.17;96.57;94869.97;5118076;27;20197;-88
2023/01/09 02:10:07;;;;;;;31.23;15.35;;;;;;;-0.15;96.98;94872.41;5131652;27;20246;-87
2023/01/09 02:12:35;;;;;;;32.03;16.35;;;;;;;-0.15;97.28;94873.19;5126143;27;20229;-87
2023/01/09 02:15:06;;;;;;;32.13;15.30;;;;;;;-0.06;95.91;94866.34;5123456;27;20196;-88
2023/01/09 02:17:59;;;;;;;29.52;15.70;;;;;;;0.09;96.11;94862.19;5117339;27;20228;-86
2023/01/09 02:20:39;;;;;;;10.98;4.28;;;;;;;0.08;96.89;94857.91;5088832;27;20289;-87
2023/01/09 02:23:48;;;;;;;27.35;14.73;;;;;;;-0.02;97.25;94866.63;5118871;27;20232;-86
2023/01/09 02:26:46;;;;;;;32.83;15.85;;;;;;;0.06;97.14;94878.66;5080952;27;20200;-87
2023/01/09 02:29:54;;;;;;;31.45;15.70;;;;;;;0.02;96.03;94866.91;5119990;27;20196;-88
2023/01/09 02:32:37;;;;;;;28.63;15.77;;;;;;;-0.13;95.03;94865.75;5123532;28;20200;-88
2023/01/09 02:35:16;;;;;;;28.35;15.65;;;;;;;-0.32;96.64;94856.56;5123290;28;20192;-88
2023/01/09 02:37:51;;;;;;;28.30;14.93;;;;;;;-0.26;96.65;94860.03;5133065;28;20501;-88
2023/01/09 02:40:27;;;;;;;30.20;15.65;;;;;;;-0.20;96.93;94853.72;5125023;28;20217;-89
2023/01/09 02:42:56;;;;;;;26.30;14.43;;;;;;;-0.16;97.16;94849.50;5126004;28;20184;-89
2023/01/09 02:45:23;;;;;;;9.02;3.42;;;;;;;-0.16;96.63;94852.97;5133257;27;20213;-88
2023/01/09 02:47:51;;;;;;;5.55;3.60;;;;;;;-0.24;96.18;94842.75;5134024;28;20242;-89
2023/01/09 02:50:22;;;;;;;5.28;3.45;;;;;;;-0.25;95.91;94854.47;5138445;28;20209;-87
2023/01/09 02:53:10;;;;;;;4.03;2.97;;;;;;;-0.24;96.17;94852.59;5125212;28;20205;-88
2023/01/09 02:55:56;;;;;;;32.75;16.58;;;;;;;-0.20;97.03;94848.38;5135433;27;20189;-88
2023/01/09 02:58:37;;;;;;;28.20;14.95;;;;;;;-0.18;96.43;94854.25;5133137;27;20185;-87
2023/01/09 03:01:19;;;;;;;30.92;14.77;;;;;;;-0.27;95.90;94858.47;5116342;27;20777;-89
2023/01/09 03:03:52;;;;;;;31.08;14.90;;;;;;;-0.25;97.04;94851.00;5135414;27;20199;-88
2023/01/09 03:06:25;;;;;;;29.65;15.05;;;;;;;-0.26;97.39;94852.84;5121482;27;20193;-90
2023/01/09 03:08:56;;;;;;;30.63;14.80;;;;;;;-0.24;96.91;94841.97;5121235;27;20197;-89
2023/01/09 03:11:26;;;;;;;25.42;14.18;;;;;;;-0.24;96.05;94845.44;5135746;27;20205;-88
2023/01/09 03:13:57;;;;;;;33.30;14.50;;;;;;;-0.17;94.86;94840.69;5135125;27;20285;-88
2023/01/09 03:16:28;;;;;;;30.50;15.10;;;;;;;-0.14;94.42;94847.38;5135472;27;20232;-89
2023/01/09 03:18:59;;;;;;;29.55;15.70;;;;;;;-0.32;95.47;94845.91;5130764;27;20201;-88
2023/01/09 03:21:26;;;;;;;31.05;14.57;;;;;;;-0.29;96.53;94849.94;5073814;28;20234;-89
2023/01/09 03:23:55;;;;;;;13.57;6.53;;;;;;;-0.36;96.63;94852.78;5086860;28;20203;-90
2023/01/09 03:26:23;;;;;;;3.75;3.00;;;;;;;-0.24;97.27;94853.41;5084845;28;20206;-89
2023/01/09 03:28:50;;;;;;;13.35;3.88;;;;;;;-0.29;97.73;94860.56;5089445;28;20203;-90
2023/01/09 03:31:17;;;;;;;11.68;4.03;;;;;;;-0.39;96.00;94850.63;5085405;28;20293;-89
2023/01/09 03:33:44;;;;;;;8.27;4.15;;;;;;;-0.60;97.33;94854.19;5081353;28;20244;-90
2023/01/09 03:36:14;;;;;;;15.35;5.40;;;;;;;-0.53;98.32;94844.91;5093786;28;20203;-91
2023/01/09 03:38:41;;;;;;;9.45;3.92;;;;;;;-0.52;98.10;94851.84;5087203;28;20260;-90
2023/01/09 03:41:08;;;;;;;6.88;3.50;;;;;;;-0.45;98.37;94851.66;5085516;28;20229;-91
2023/01/09 03:43:35;;;;;;;4.70;3.58;;;;;;;-0.43;97.43;94850.34;5080289;28;20223;-88
2023/01/09 03:46:02;;;;;;;27.77;14.77;;;;;;;-0.47;97.67;94848.44;5079976;28;20718;-89
2023/01/09 03:48:29;;;;;;;33.05;16.23;;;;;;;-0.49;98.28;94848.69;5086888;28;20253;-89
2023/01/09 03:50:56;;;;;;;29.73;15.70;;;;;;;-0.36;98.37;94844.81;5087263;28;20206;-90
2023/01/09 03:53:26;;;;;;;29.42;16.10;;;;;;;-0.27;98.59;94847.81;5093130;28;20734;-90
2023/01/09 03:55:55;;;;;;;28.25;16.55;;;;;;;-0.21;98.63;94858.22;5078907;28;20663;-90
2023/01/09 03:58:22;;;;;;;31.73;16.02;;;;;;;-0.28;97.33;94852.34;5083554;28;20198;-90
2023/01/09 04:00:51;;;;;;;29.17;15.40;;;;;;;-0.34;97.20;94848.00;5080447;28;20202;-90
2023/01/09 04:03:20;;;;;;;5.93;3.35;;;;;;;-0.44;97.60;94843.41;5096887;28;20198;-90
2023/01/09 04:05:48;;;;;;;8.10;3.83;;;;;;;-0.33;97.76;94844.31;5098154;28;20210;-90
2023/01/09 04:08:17;;;;;;;9.02;4.55;;;;;;;-0.22;97.48;94853.97;5093764;28;20194;-90
2023/01/09 04:10:53;;;;;;;5.03;3.63;;;;;;;-0.21;98.09;94849.44;5079604;28;20238;-88
2023/01/09 04:13:20;;;;;;;11.30;4.32;;;;;;;-0.02;98.42;94842.69;5082137;28;20637;-88
2023/01/09 04:15:47;;;;;;;8.00;4.55;;;;;;;-0.05;97.17;94851.97;5086605;28;20231;-88
2023/01/09 04:18:14;;;;;;;6.85;3.72;;;;;;;-0.10;96.77;94843.94;5083997;28;20206;-86
2023/01/09 04:20:41;;;;;;;4.72;3.13;;;;;;;-0.18;95.45;94841.75;5116558;27;20321;-88
2023/01/09 04:23:08;;;;;;;5.00;3.45;;;;;;;-0.23;96.01;94841.72;5124771;27;20225;-89
2023/01/09 04:25:35;;;;;;;6.38;3.65;;;;;;;-0.18;96.14;94843.63;5114083;27;20193;-88
2023/01/09 04:28:03;;;;;;;14.18;4.72;;;;;;;-0.15;96.12;94846.56;5112716;28;20618;-89
2023/01/09 04:30:30;;;;;;;7.70;4.15;;;;;;;-0.26;96.29;94838.75;5126353;27;20198;-90
2023/01/09 04:32:57;;;;;;;148.73;36.90;;;;;;;-0.50;95.65;94843.63;5127041;27;20205;-88
2023/01/09 04:35:23;;;;;;;26.27;8.93;;;;;;;-0.46;96.25;94840.22;5113619;27;20197;-86
2023/01/09 04:37:50;;;;;;;15.88;5.55;;;;;;;-0.39;95.97;94851.44;5126737;27;20258;-88
2023/01/09 04:40:18;;;;;;;9.15;4.13;;;;;;;-0.33;95.38;94843.50;5119316;27;20213;-90
2023/01/09 04:42:45;;;;;;;7.30;4.50;;;;;;;-0.51;95.39;94832.16;5119241;27;20282;-86
2023/01/09 04:45:15;;;;;;;10.65;4.47;;;;;;;-0.45;95.61;94830.38;5119526;27;20582;-88
2023/01/09 04:47:43;;;;;;;21.15;11.68;;;;;;;-0.36;94.15;94829.63;5119285;27;20198;-88
2023/01/09 04:50:11;;;;;;;6.03;3.28;;;;;;;-0.51;95.26;94834.84;5133061;27;20670;-89
2023/01/09 04:52:38;;;;;;;5.78;2.13;;;;;;;-0.51;96.64;94834.03;5133498;27;20620;-87
2023/01/09 04:55:06;;;;;;;3.67;2.50;;;;;;;-0.41;97.62;94826.16;5124599;27;20197;-81
2023/01/09 04:57:34;;;;;;;7.10;2.97;;;;;;;-0.41;97.87;94826.94;5126546;27;20278;-81
2023/01/09 05:00:01;;;;;;;9.02;3.38;;;;;;;-0.38;96.64;94820.31;5116328;27;20201;-84
2023/01/09 05:02:29;;;;;;;8.13;4.78;;;;;;;-0.40;95.98;94817.09;5117035;27;20229;-80
2023/01/09 05:04:55;;;;;;;16.23;6.18;;;;;;;-0.37;97.00;94816.59;5120584;27;20208;-79
2023/01/09 05:07:22;;;;;;;7.47;4.10;;;;;;;-0.32;97.15;94813.97;5128250;27;20547;-81
2023/01/09 05:09:49;;;;;;;2.97;1.90;;;;;;;-0.30;96.38;94822.50;5115045;27;20201;-80
2023/01/09 05:12:16;;;;;;;7.53;2.75;;;;;;;-0.41;96.12;94823.50;5130037;27;20273;-80
2023/01/09 05:14:42;;;;;;;4.30;2.40;;;;;;;-1.13;96.07;94822.03;5132163;27;20201;-81
2023/01/09 05:17:09;;;;;;;7.20;3.05;;;;;;;-1.16;98.49;94840.31;5115521;27;20201;-81
2023/01/09 05:19:37;;;;;;;5.88;2.50;;;;;;;-1.02;98.92;94830.09;5118301;27;20275;-87
2023/01/09 05:22:04;;;;;;;21.08;11.63;;;;;;;-0.90;98.48;94839.53;5121048;27;20271;-87
2023/01/09 05:24:31;;;;;;;24.52;11.95;;;;;;;-1.00;98.22;94834.13;5134073;27;20248;-85
2023/01/09 05:26:58;;;;;;;27.48;13.52;;;;;;;-0.85;99.18;94846.75;5136190;27;20205;-87
2023/01/09 05:29:25;;;;;;;22.10;11.75;;;;;;;-0.73;98.74;94845.56;5127607;27;20205;-86
2023/01/09 05:31:52;;;;;;;25.95;13.23;;;;;;;-0.77;98.51;94843.63;5134077;27;20254;-86
2023/01/09 05:34:20;;;;;;;25.95;13.20;;;;;;;-0.58;98.71;94838.78;5139518;27;20287;-86
2023/01/09 05:36:48;;;;;;;2.58;2.20;;;;;;;-0.47;98.48;94833.28;5118260;27;20602;-87
2023/01/09 05:39:15;;;;;;;4.32;3.10;;;;;;;-0.44;96.86;94831.97;5126343;27;20879;-86
2023/01/09 05:41:42;;;;;;;5.70;3.15;;;;;;;-0.56;96.39;94831.34;5120346;27;20282;-86
2023/01/09 05:44:08;;;;;;;20.88;12.07;;;;;;;-0.46;95.96;94823.44;5123863;27;20218;-87
2023/01/09 05:46:35;;;;;;;8.70;4.00;;;;;;;-0.53;95.45;94828.16;5136766;27;20226;-86
2023/01/09 05:49:02;;;;;;;4.32;1.70;;;;;;;-0.54;96.00;94815.91;5139259;27;20223;-86
2023/01/09 05:51:30;;;;;;;7.70;3.15;;;;;;;-0.50;96.41;94817.00;5138342;27;20201;-85
2023/01/09 05:53:59;;;;;;;6.57;3.55;;;;;;;-0.48;97.05;94814.91;5140072;27;20534;-87
2023/01/09 05:56:25;;;;;;;7.95;2.53;;;;;;;-0.46;96.34;94818.13;5139910;27;20208;-87
2023/01/09 05:58:52;;;;;;;6.57;3.38;;;;;;;-0.44;96.71;94821.34;5143772;27;20205;-87
2023/01/09 06:01:19;;;;;;;6.30;3.58;;;;;;;-0.52;98.26;94819.13;5143803;27;20209;-87
2023/01/09 06:03:46;;;;;;;7.80;4.22;;;;;;;-0.31;98.63;94826.22;5138044;27;20710;-86
2023/01/09 06:06:13;;;;;;;7.00;4.05;;;;;;;-0.12;98.66;94819.44;5139640;27;20261;-87
2023/01/09 06:08:40;;;;;;;10.35;6.05;;;;;;;0.05;98.67;94813.16;5137084;27;20209;-86
2023/01/09 06:11:08;;;;;;;7.95;5.32;;;;;;;-0.04;97.08;94805.66;5123475;27;20300;-87
2023/01/09 06:13:38;;;;;;;24.38;4.45;;;;;;;0.04;97.42;94808.88;5139724;27;20201;-85
2023/01/09 06:16:05;;;;;;;4.53;3.10;;;;;;;0.13;96.87;94815.34;5125467;28;20245;-87
2023/01/09 06:18:35;;;;;;;3.67;2.53;;;;;;;0.18;95.31;94808.16;5137736;27;20200;-87
2023/01/09 06:21:05;;;;;;;17.48;3.78;;;;;;;0.07;94.40;94811.03;5137460;27;20233;-86
2023/01/09 06:23:31;;;;;;;15.07;4.38;;;;;;;0.04;94.69;94822.19;5137316;27;20312;-86
2023/01/09 06:25:58;;;;;;;14.88;4.22;;;;;;;0.27;94.70;94811.16;5138688;27;20261;-87
2023/01/09 06:28:26;;;;;;;9.43;3.70;;;;;;;0.25;93.83;94807.94;5138336;27;20201;-86
2023/01/09 06:30:53;;;;;;;5.97;3.13;;;;;;;0.21;93.36;94809.50;5129102;27;20235;-87
2023/01/09 06:33:20;;;;;;;6.22;3.97;;;;;;;0.34;93.85;94811.72;5130449;28;20215;-86
2023/01/09 06:35:47;;;;;;;8.98;4.78;;;;;;;0.60;93.58;94804.63;5126836;28;20242;-86
2023/01/09 06:38:21;;;;;;;6.53;4.30;;;;;;;0.90;92.70;94798.59;5137777;28;20205;-86
2023/01/09 06:40:49;;;;;;;14.55;8.02;;;;;;;1.17;91.83;94799.19;5128003;28;20296;-86
2023/01/09 06:43:16;;;;;;;10.70;4.88;;;;;;;1.24;90.73;94794.38;5130417;27;20237;-86
2023/01/09 06:45:44;;;;;;;12.30;5.68;;;;;;;0.95;91.31;94799.44;5124480;28;20193;-86
2023/01/09 06:48:11;;;;;;;7.50;4.13;;;;;;;0.99;91.88;94799.69;5132688;28;20197;-86
2023/01/09 06:50:38;;;;;;;13.50;5.40;;;;;;;1.08;92.04;94803.47;5134214;28;20694;-86
2023/01/09 06:53:05;;;;;;;9.63;4.35;;;;;;;1.07;91.73;94801.84;5120024;28;20258;-86
2023/01/09 06:55:31;;;;;;;7.22;2.80;;;;;;;1.28;92.00;94800.81;5134368;28;20200;-86
2023/01/09 06:58:00;;;;;;;8.43;4.57;;;;;;;1.25;92.04;94800.53;5124868;28;20193;-86
2023/01/09 07:00:33;;;;;;;3.50;3.20;;;;;;;1.41;92.15;94804.81;5134499;28;20204;-87
2023/01/09 07:03:18;;;;;;;7.07;4.75;;;;;;;1.64;90.37;94804.28;5117132;28;20230;-87
2023/01/09 07:05:50;;;;;;;5.57;4.07;;;;;;;1.68;91.02;94796.56;5115066;28;20617;-88
2023/01/09 07:08:17;;;;;;;15.35;5.18;;;;;;;1.91;90.66;94795.22;5122213;28;20220;-85
2023/01/09 07:10:48;;;;;;;11.52;4.75;;;;;;;2.02;90.81;94786.13;5129173;28;20301;-86
2023/01/09 07:13:19;;;;;;;14.35;5.18;;;;;;;2.38;90.47;94781.47;5121157;28;20196;-84
2023/01/09 07:15:49;;;;;;;8.68;5.15;;;;;;;2.60;89.86;94789.94;5123673;27;20701;-84
2023/01/09 07:18:21;;;;;;;8.50;4.38;;;;;;;2.71;88.90;94780.81;5123182;28;20284;-85
2023/01/09 07:20:53;;;;;;;10.10;5.88;;;;;;;2.87;86.82;94783.44;5117278;28;20229;-85
2023/01/09 07:23:23;;;;;;;11.60;5.70;;;;;;;2.81;86.59;94794.16;5117526;28;20696;-85
2023/01/09 07:25:57;;;;;;;9.13;4.38;;;;;;;2.84;87.72;94790.94;5131092;28;20197;-85
2023/01/09 07:28:24;;;;;;;11.15;5.05;;;;;;;2.98;87.73;94790.31;5130270;28;20193;-87
2023/01/09 07:30:54;;;;;;;14.20;6.32;;;;;;;3.16;85.67;94784.31;5122396;28;20541;-87
2023/01/09 07:33:25;;;;;;;11.80;6.15;;;;;;;3.19;85.90;94781.09;5116944;28;20255;-88
2023/01/09 07:35:55;;;;;;;18.15;7.68;;;;;;;3.14;85.72;94778.47;5130087;28;20186;-88
2023/01/09 07:38:22;;;;;;;13.73;7.28;;;;;;;3.29;85.38;94783.69;5128400;28;20209;-86
2023/01/09 07:40:57;;;;;;;14.27;8.05;;;;;;;3.28;86.76;94787.44;5126576;27;20269;-86
2023/01/09 07:43:25;;;;;;;18.48;8.80;;;;;;;3.25;85.34;94790.69;5122665;27;20225;-85
2023/01/09 07:45:58;;;;;;;69.57;27.35;;;;;;;3.12;86.55;94791.31;5123248;27;20206;-85
2023/01/09 07:48:27;;;;;;;28.80;13.95;;;;;;;3.28;87.18;94794.72;5128248;27;20228;-84
2023/01/09 07:50:57;;;;;;;24.65;11.98;;;;;;;3.29;87.03;94797.09;5129106;27;20597;-84
2023/01/09 07:53:31;;;;;;;31.55;13.25;;;;;;;3.47;86.47;94809.03;5122605;27;20201;-83
2023/01/09 07:55:58;;;;;;;19.00;8.70;;;;;;;3.92;85.43;94802.53;5121718;27;20205;-84
2023/01/09 07:58:25;;;;;;;21.45;8.95;;;;;;;4.05;82.68;94804.53;5128591;27;20208;-82
2023/01/09 08:00:52;;;;;;;15.18;8.75;;;;;;;4.38;82.00;94797.50;5137841;27;20276;-85
2023/01/09 08:03:18;;;;;;;24.05;10.50;;;;;;;4.81;81.79;94801.03;5127625;27;20226;-83
2023/01/09 08:06:02;;;;;;;15.00;5.95;;;;;;;4.84;79.89;94795.09;5130863;27;20223;-83
2023/01/09 08:08:29;;;;;;;12.27;6.38;;;;;;;5.05;79.59;94805.59;5124465;27;20193;-84
2023/01/09 08:11:00;;;;;;;10.82;6.47;;;;;;;4.90;80.34;94803.91;5135462;27;20209;-84
2023/01/09 08:13:29;;;;;;;15.70;7.57;;;;;;;4.82;81.02;94802.66;5124987;27;20202;-86
2023/01/09 08:16:02;;;;;;;15.05;7.47;;;;;;;4.92;81.19;94802.50;5120955;27;20276;-85
2023/01/09 08:18:28;;;;;;;11.18;6.97;;;;;;;5.28;80.22;94796.69;5122684;27;20705;-84
2023/01/09 08:21:00;;;;;;;17.10;8.63;;;;;;;5.57;79.66;94802.72;5128562;27;20228;-85
2023/01/09 08:23:29;;;;;;;15.95;6.75;;;;;;;5.40;77.87;94797.06;5116498;27;20228;-84
2023/01/09 08:26:01;;;;;;;12.77;5.93;;;;;;;5.62;77.68;94791.88;5136408;27;20201;-85
2023/01/09 08:28:30;;;;;;;11.02;6.63;;;;;;;5.49;78.12;94794.50;5122544;27;20229;-86
2023/01/09 08:30:57;;;;;;;24.38;8.00;;;;;;;5.03;79.16;94794.34;5136237;27;20578;-86
2023/01/09 08:33:24;;;;;;;11.27;6.07;;;;;;;5.30;79.82;94792.63;5136783;27;20205;-84
2023/01/09 08:35:51;;;;;;;10.68;5.80;;;;;;;5.58;78.19;94793.56;5125516;27;20201;-85
2023/01/09 08:38:20;;;;;;;13.55;6.88;;;;;;;5.93;77.87;94791.44;5132894;27;20273;-86
2023/01/09 08:40:47;;;;;;;16.58;6.85;;;;;;;5.81;77.35;94801.81;5126279;27;20208;-87
2023/01/09 08:49:03;;;;;;;14.25;5.15;;;;;;;6.21;76.35;94790.41;5111903;28;20201;-85
2023/01/09 08:51:30;;;;;;;13.50;7.57;;;;;;;6.16;76.58;94785.13;5132604;27;20205;-84
2023/01/09 08:53:58;;;;;;;7.20;2.88;;;;;;;6.33;75.06;94789.94;5135409;27;20193;-86
2023/01/09 08:56:25;;;;;;;14.45;6.68;;;;;;;6.03;76.51;94783.19;5116166;27;20549;-87
2023/01/09 08:58:52;;;;;;;19.35;7.70;;;;;;;5.92;77.01;94782.56;5124123;27;20206;-86
2023/01/09 09:01:18;;;;;;;13.27;5.68;;;;;;;5.93;76.65;94776.09;5128448;27;20668;-83
2023/01/09 09:03:45;;;;;;;18.52;7.63;;;;;;;5.85;76.40;94770.56;5114065;28;20233;-85
2023/01/09 09:06:12;;;;;;;10.05;5.90;;;;;;;5.74;77.35;94761.09;5135516;27;20200;-84
2023/01/09 09:08:38;;;;;;;13.13;6.85;;;;;;;5.74;77.34;94758.41;5121575;27;20604;-84
2023/01/09 09:11:07;;;;;;;19.20;8.23;;;;;;;5.85;76.83;94759.81;5118099;28;20252;-85
2023/01/09 09:13:33;;;;;;;19.75;8.05;;;;;;;5.68;77.06;94761.16;5131239;27;20201;-80
2023/01/09 09:16:00;;;;;;;10.88;5.65;;;;;;;5.27;78.59;94760.19;5127953;27;20205;-82
2023/01/09 09:18:27;;;;;;;14.45;6.85;;;;;;;5.26;79.27;94737.09;5129804;27;20205;-85
2023/01/09 09:20:54;;;;;;;13.15;6.35;;;;;;;5.31;79.28;94745.88;5134843;27;20281;-86
2023/01/09 09:23:22;;;;;;;20.55;9.85;;;;;;;5.41;78.57;94739.56;5118966;27;20270;-83
2023/01/09 09:25:48;;;;;;;13.07;4.80;;;;;;;5.43;77.71;94732.00;5125090;27;20674;-86
2023/01/09 09:28:17;;;;;;;12.98;6.13;;;;;;;5.80;78.04;94730.34;5125875;27;20292;-87
2023/01/09 09:30:44;;;;;;;17.85;7.40;;;;;;;5.73;78.03;94730.72;5120994;27;20205;-81
2023/01/09 09:33:10;;;;;;;15.13;5.85;;;;;;;5.68;78.22;94723.53;5119470;27;20206;-81
2023/01/09 09:35:37;;;;;;;6.90;2.70;;;;;;;5.68;77.78;94718.16;5125194;27;20598;-84
2023/01/09 09:38:05;;;;;;;7.22;3.90;;;;;;;5.96;77.00;94716.38;5126674;27;20204;-83
2023/01/09 09:40:47;;;;;;;16.15;6.35;;;;;;;5.88;77.26;94703.59;5112267;28;20209;-84
2023/01/09 09:46:42;;;;;;;8.40;3.72;;;;;;;5.61;77.71;94690.84;5127368;27;20230;-85
2023/01/09 09:49:15;;;;;;;10.70;5.97;;;;;;;5.78;77.58;94684.13;5125123;27;20189;-79
2023/01/09 09:51:56;;;;;;;18.48;8.35;;;;;;;5.88;77.79;94667.81;5120350;27;20193;-80
2023/01/09 09:54:29;;;;;;;13.73;7.13;;;;;;;6.17;76.66;94660.31;5120063;27;20220;-83
2023/01/09 09:56:59;;;;;;;10.27;6.30;;;;;;;6.32;76.43;94643.06;5127796;27;20182;-81
2023/01/09 09:59:32;;;;;;;10.88;6.97;;;;;;;6.31;76.04;94644.16;5119491;27;20212;-84
2023/01/09 10:02:04;;;;;;;15.93;6.97;;;;;;;6.24;76.47;94627.66;5133263;27;20189;-85
2023/01/09 10:04:33;;;;;;;8.93;5.32;;;;;;;6.25;76.83;94615.78;5132681;27;20212;-81
2023/01/09 10:07:05;;;;;;;23.05;10.65;;;;;;;6.00;77.05;94622.47;5119313;27;20266;-84
2023/01/09 10:09:45;;;;;;;17.58;9.55;;;;;;;5.88;77.71;94606.81;5117887;27;20238;-85
2023/01/09 10:12:26;;;;;;;14.95;6.47;;;;;;;6.21;76.85;94602.16;5117759;27;20208;-81
2023/01/09 10:14:55;;;;;;;13.32;5.88;;;;;;;6.39;76.15;94598.53;5121706;27;20687;-83
2023/01/09 10:17:44;;;;;;;9.02;4.68;;;;;;;6.65;74.99;94595.28;5130215;27;20320;-86
2023/01/09 10:20:51;;;;;;;12.32;6.63;;;;;;;6.79;74.57;94579.91;5116825;27;20234;-82
2023/01/09 10:23:46;;;;;;;5.90;3.15;;;;;;;6.71;74.62;94583.28;5113811;27;20232;-80
2023/01/09 10:26:27;;;;;;;11.93;5.70;;;;;;;6.80;74.49;94573.41;5122369;27;20209;-82
2023/01/09 10:29:22;;;;;;;14.63;7.45;;;;;;;6.99;74.19;94576.72;5117594;27;20189;-81
2023/01/09 10:32:01;;;;;;;12.95;6.40;;;;;;;6.62;75.25;94577.06;5119004;27;20197;-84
2023/01/09 10:34:43;;;;;;;12.13;6.85;;;;;;;6.46;76.57;94570.41;5120542;27;20190;-86
2023/01/09 10:37:18;;;;;;;12.85;6.95;;;;;;;6.47;76.96;94562.03;5118917;28;20201;-83
2023/01/09 10:39:51;;;;;;;13.70;6.82;;;;;;;6.91;75.67;94574.75;5129280;28;20185;-83
2023/01/09 10:42:22;;;;;;;14.20;6.18;;;;;;;7.16;74.16;94564.47;5119862;27;20600;-84
2023/01/09 10:44:56;;;;;;;19.88;9.07;;;;;;;7.32;73.71;94571.06;5116908;28;20243;-83
2023/01/09 10:47:33;;;;;;;14.43;6.15;;;;;;;7.63;72.76;94557.59;5132052;28;20188;-82
2023/01/09 10:50:01;;;;;;;15.80;6.18;;;;;;;7.58;72.30;94536.97;5117222;28;20196;-83
2023/01/09 10:52:38;;;;;;;9.70;5.53;;;;;;;7.51;73.47;94547.41;5131214;28;20220;-81
2023/01/09 10:55:18;;;;;;;15.95;7.13;;;;;;;7.54;72.23;94541.38;5119218;28;20201;-81
2023/01/09 10:57:49;;;;;;;10.27;5.63;;;;;;;7.48;72.86;94534.56;5122067;28;20185;-83
2023/01/09 11:00:19;;;;;;;17.38;7.13;;;;;;;7.13;73.39;94520.88;5120547;28;20201;-85
2023/01/09 11:02:48;;;;;;;9.38;5.18;;;;;;;7.16;73.75;94518.69;5124193;28;20243;-82
2023/01/09 11:05:19;;;;;;;8.13;3.60;;;;;;;7.47;72.12;94498.72;5122334;28;20232;-81
2023/01/09 11:07:50;;;;;;;9.88;5.38;;;;;;;7.64;72.21;94498.00;5117319;28;20608;-83
2023/01/09 11:10:17;;;;;;;9.75;4.03;;;;;;;7.97;71.10;94492.19;5131953;28;20594;-83
2023/01/09 11:12:44;;;;;;;13.13;5.28;;;;;;;8.02;71.29;94489.38;5116314;27;20635;-83
2023/01/09 11:15:28;;;;;;;8.52;4.03;;;;;;;8.32;69.65;94485.78;5122805;27;20222;-83
2023/01/09 11:18:17;;;;;;;8.75;5.00;;;;;;;8.17;69.38;94495.13;5124481;27;20640;-80
2023/01/09 11:20:45;;;;;;;6.20;3.58;;;;;;;8.16;69.91;94498.13;5120754;27;20229;-82
2023/01/09 11:23:28;;;;;;;21.15;7.10;;;;;;;8.13;69.84;94494.16;5121528;27;20206;-84
2023/01/09 11:25:57;;;;;;;6.50;4.13;;;;;;;8.08;70.03;94490.78;5121442;27;20213;-83
2023/01/09 11:28:24;;;;;;;9.98;3.00;;;;;;;7.74;70.96;94476.13;5121887;27;20672;-84
2023/01/09 11:30:58;;;;;;;8.05;4.43;;;;;;;7.46;72.16;94480.16;5126316;27;20629;-81
2023/01/09 11:33:29;;;;;;;9.68;4.07;;;;;;;7.08;73.23;94480.63;5128477;27;20198;-79
2023/01/09 11:36:06;;;;;;;19.48;10.18;;;;;;;7.13;73.26;94477.78;5125359;27;20200;-83
2023/01/09 11:38:47;;;;;;;13.05;6.40;;;;;;;7.01;73.60;94474.88;5121241;27;20659;-85
2023/01/09 11:41:18;;;;;;;9.07;4.20;;;;;;;7.16;73.64;94475.59;5122349;27;20193;-82
2023/01/09 11:43:48;;;;;;;10.48;5.28;;;;;;;7.09;73.74;94465.28;5126458;27;20262;-79
2023/01/09 11:46:31;;;;;;;6.70;2.90;;;;;;;7.23;73.56;94481.34;5130178;27;20675;-83
2023/01/09 11:49:01;;;;;;;9.18;3.65;;;;;;;7.43;73.01;94470.00;5127282;27;20600;-81
2023/01/09 11:51:30;;;;;;;9.90;4.25;;;;;;;7.55;72.50;94459.41;5121303;27;20537;-84
2023/01/09 11:54:22;;;;;;;8.00;3.63;;;;;;;7.64;71.83;94467.56;5122262;27;20193;-82
2023/01/09 11:56:51;;;;;;;5.85;3.58;;;;;;;7.63;71.62;94460.56;5118343;27;20239;-82
2023/01/09 11:59:20;;;;;;;15.25;6.85;;;;;;;7.79;71.65;94462.50;5120948;27;20197;-82